createdAt,value
2022-08-07T00:01:44.631Z,98196.09
2022-08-07T00:03:50.800Z,98187.53
2022-08-07T00:06:17.429Z,98182.81
2022-08-07T00:08:47.179Z,98179.78
2022-08-07T00:11:20.019Z,98188.59
2022-08-07T00:13:57.076Z,98183.25
2022-08-07T00:16:28.157Z,98182.59
2022-08-07T00:18:54.855Z,98187.59
2022-08-07T00:21:56.634Z,98201.09
2022-08-07T00:24:09.174Z,98199.53
2022-08-07T00:29:18.924Z,98202.81
2022-08-07T00:31:50.088Z,98202.78
2022-08-07T00:34:17.922Z,98188.22
2022-08-07T00:36:48.297Z,98185.94
2022-08-07T00:39:17.071Z,98183.44
2022-08-07T00:41:53.685Z,98186.25
2022-08-07T00:44:29.553Z,98183.06
2022-08-07T00:46:56.148Z,98178.41
2022-08-07T00:49:24.637Z,98178.22
2022-08-07T00:52:09.969Z,98177.38
2022-08-07T00:54:36.757Z,98173.47
2022-08-07T00:57:07.449Z,98177.09
2022-08-07T00:59:37.454Z,98174.69
2022-08-07T01:02:09.033Z,98176.03
2022-08-07T01:04:43.465Z,98168.53
2022-08-07T01:07:11.109Z,98175.44
2022-08-07T01:10:05.260Z,98176.25
2022-08-07T01:12:29.743Z,98175.75
2022-08-07T01:15:01.186Z,98175.59
2022-08-07T01:17:29.218Z,98166.75
2022-08-07T01:20:01.902Z,98171.75
2022-08-07T01:22:31.667Z,98180.41
2022-08-07T01:24:58.755Z,98180.06
2022-08-07T01:27:25.471Z,98179.28
2022-08-07T01:29:59.266Z,98174.91
2022-08-07T01:32:28.040Z,98171.78
2022-08-07T01:34:56.102Z,98161.81
2022-08-07T01:37:24.396Z,98160.97
2022-08-07T01:39:53.865Z,98169.47
2022-08-07T01:42:38.555Z,98167.19
2022-08-07T01:45:09.668Z,98169.63
2022-08-07T01:48:21.722Z,98170.66
2022-08-07T01:50:28.969Z,98172.75
2022-08-07T01:52:58.730Z,98178.63
2022-08-07T01:55:28.713Z,98169.81
2022-08-07T01:58:06.516Z,98160.13
2022-08-07T02:00:50.082Z,98160.72
2022-08-07T02:03:21.723Z,98158.44
2022-08-07T02:05:59.605Z,98149.31
2022-08-07T02:08:29.391Z,98151.09
2022-08-07T02:11:00.740Z,98148.06
2022-08-07T02:13:57.316Z,98156.13
2022-08-07T02:16:28.600Z,98144.59
2022-08-07T02:19:02.471Z,98141.00
2022-08-07T02:21:56.236Z,98144.66
2022-08-07T02:24:19.811Z,98138.66
2022-08-07T02:26:50.223Z,98135.88
2022-08-07T02:29:21.930Z,98130.19
2022-08-07T02:31:51.373Z,98138.38
2022-08-07T02:34:21.318Z,98134.75
2022-08-07T02:36:51.541Z,98140.06
2022-08-07T02:39:43.755Z,98144.69
2022-08-07T02:42:10.161Z,98144.38
2022-08-07T02:44:48.316Z,98142.78
2022-08-07T02:47:19.466Z,98138.84
2022-08-07T02:50:05.208Z,98131.88
2022-08-07T02:52:35.463Z,98133.34
2022-08-07T02:55:15.278Z,98137.25
2022-08-07T02:57:58.395Z,98131.66
2022-08-07T03:00:28.473Z,98131.06
2022-08-07T03:02:58.469Z,98135.19
2022-08-07T03:05:25.314Z,98119.94
2022-08-07T03:08:07.322Z,98118.41
2022-08-07T03:10:46.187Z,98119.00
2022-08-07T03:13:15.843Z,98116.16
2022-08-07T03:15:55.934Z,98118.44
2022-08-07T03:18:25.878Z,98119.38
2022-08-07T03:21:02.731Z,98125.09
2022-08-07T03:23:33.712Z,98119.72
2022-08-07T03:26:21.265Z,98122.56
2022-08-07T03:28:53.515Z,98110.41
2022-08-07T03:31:24.464Z,98115.25
2022-08-07T03:33:55.578Z,98121.41
2022-08-07T03:36:25.788Z,98123.00
2022-08-07T03:38:57.491Z,98126.03
2022-08-07T03:41:42.560Z,98116.19
2022-08-07T03:44:13.133Z,98120.03
2022-08-07T03:47:13.506Z,98125.22
2022-08-07T03:49:29.367Z,98123.47
2022-08-07T03:52:01.983Z,98125.13
2022-08-07T03:54:35.148Z,98121.28
2022-08-07T03:58:34.485Z,98121.03
2022-08-07T04:00:05.347Z,98113.09
2022-08-07T04:02:32.928Z,98114.19
2022-08-07T04:04:59.522Z,98123.50
2022-08-07T04:07:41.701Z,98125.56
2022-08-07T04:10:15.665Z,98120.56
2022-08-07T04:12:46.375Z,98111.16
2022-08-07T04:15:16.569Z,98127.75
2022-08-07T04:18:56.975Z,98124.44
2022-08-07T04:20:31.221Z,98123.19
2022-08-07T04:23:06.200Z,98121.41
2022-08-07T04:25:35.795Z,98120.78
2022-08-07T04:28:06.193Z,98117.13
2022-08-07T04:30:55.545Z,98121.25
2022-08-07T04:33:25.194Z,98123.09
2022-08-07T04:35:54.059Z,98134.16
2022-08-07T04:38:21.830Z,98120.53
2022-08-07T04:40:51.875Z,98129.13
2022-08-07T04:44:09.922Z,98122.25
2022-08-07T04:46:20.130Z,98123.03
2022-08-07T04:49:01.563Z,98128.63
2022-08-07T04:51:44.903Z,98134.81
2022-08-07T04:54:22.696Z,98137.66
2022-08-07T04:58:16.697Z,98133.25
2022-08-07T05:00:12.833Z,98132.38
2022-08-07T05:02:52.852Z,98135.03
2022-08-07T05:05:53.417Z,98137.97
2022-08-07T05:08:18.311Z,98136.63
2022-08-07T05:11:10.451Z,98147.69
2022-08-07T05:14:53.679Z,98140.19
2022-08-07T05:16:43.819Z,98145.56
2022-08-07T05:19:17.287Z,98156.72
2022-08-07T05:22:01.560Z,98153.19
2022-08-07T05:24:30.735Z,98138.28
2022-08-07T05:28:01.947Z,98139.88
2022-08-07T05:30:00.731Z,98134.56
2022-08-07T05:32:27.798Z,98143.63
2022-08-07T05:34:56.761Z,98143.81
2022-08-07T05:37:25.321Z,98141.47
2022-08-07T05:40:05.864Z,98135.13
2022-08-07T05:42:39.373Z,98137.06
2022-08-07T05:45:14.445Z,98132.59
2022-08-07T05:48:01.526Z,98130.78
2022-08-07T05:50:33.156Z,98132.53
2022-08-07T05:53:00.027Z,98135.47
2022-08-07T05:56:03.054Z,98130.78
2022-08-07T05:58:22.069Z,98125.50
2022-08-07T06:01:05.934Z,98130.44
2022-08-07T06:03:57.189Z,98133.59
2022-08-07T06:06:29.788Z,98128.38
2022-08-07T06:09:00.085Z,98135.41
2022-08-07T06:11:27.886Z,98125.56
2022-08-07T06:14:12.293Z,98133.44
2022-08-07T06:16:44.097Z,98127.56
2022-08-07T06:19:17.915Z,98120.00
2022-08-07T06:22:14.979Z,98121.59
2022-08-07T06:24:45.742Z,98122.47
2022-08-07T06:27:22.928Z,98119.31
2022-08-07T06:30:08.831Z,98124.78
2022-08-07T06:32:55.315Z,98117.66
2022-08-07T06:35:22.006Z,98121.06
2022-08-07T06:37:52.948Z,98119.50
2022-08-07T06:40:21.302Z,98119.63
2022-08-07T06:42:49.783Z,98114.72
2022-08-07T06:45:21.898Z,98115.56
2022-08-07T06:47:58.458Z,98108.97
2022-08-07T06:50:26.611Z,98119.84
2022-08-07T06:52:56.874Z,98110.00
2022-08-07T06:55:53.691Z,98108.38
2022-08-07T06:58:16.714Z,98117.81
2022-08-07T07:00:48.742Z,98110.19
2022-08-07T07:03:26.516Z,98109.44
2022-08-07T07:06:26.054Z,98115.25
2022-08-07T07:08:54.587Z,98109.94
2022-08-07T07:12:08.580Z,98105.28
2022-08-07T07:14:10.241Z,98107.06
2022-08-07T07:16:50.113Z,98108.44
2022-08-07T07:19:55.479Z,98103.03
2022-08-07T07:22:36.673Z,98106.72
2022-08-07T07:25:02.773Z,98101.81
2022-08-07T07:27:56.346Z,98102.34
2022-08-07T07:30:38.705Z,98108.03
2022-08-07T07:33:08.917Z,98107.06
2022-08-07T07:35:43.801Z,98095.66
2022-08-07T07:38:28.807Z,98093.06
2022-08-07T07:41:02.607Z,98094.13
2022-08-07T07:44:13.788Z,98097.22
2022-08-07T07:46:36.936Z,98096.66
2022-08-07T07:50:35.338Z,98102.56
2022-08-07T07:51:59.733Z,98090.84
2022-08-07T07:54:29.734Z,98089.59
2022-08-07T07:57:00.370Z,98093.22
2022-08-07T07:59:52.393Z,98099.66
2022-08-07T08:02:34.282Z,98088.78
2022-08-07T08:05:04.596Z,98082.84
2022-08-07T08:07:35.753Z,98089.34
2022-08-07T08:10:14.942Z,98093.25
2022-08-07T08:13:00.596Z,98082.03
2022-08-07T08:15:57.742Z,98086.63
2022-08-07T08:18:24.245Z,98081.28
2022-08-07T08:20:52.453Z,98077.50
2022-08-07T08:23:22.336Z,98084.22
2022-08-07T08:25:57.418Z,98075.56
2022-08-07T08:28:38.534Z,98064.72
2022-08-07T08:31:15.774Z,98085.34
2022-08-07T08:33:48.967Z,98073.44
2022-08-07T08:36:18.392Z,98070.06
2022-08-07T08:38:55.761Z,98067.03
2022-08-07T08:41:57.611Z,98064.91
2022-08-07T08:44:29.709Z,98067.59
2022-08-07T08:47:09.880Z,98065.50
2022-08-07T08:49:46.284Z,98064.66
2022-08-07T08:52:30.296Z,98061.31
2022-08-07T08:55:04.734Z,98064.38
2022-08-07T08:57:40.096Z,98050.88
2022-08-07T09:00:10.697Z,98058.91
2022-08-07T09:02:49.357Z,98060.47
2022-08-07T09:05:32.282Z,98055.03
2022-08-07T09:08:24.373Z,98046.19
2022-08-07T09:11:03.832Z,98045.94
2022-08-07T09:13:37.608Z,98040.91
2022-08-07T09:16:25.227Z,98037.03
2022-08-07T09:19:51.000Z,98038.78
2022-08-07T09:24:28.309Z,98039.88
2022-08-07T09:25:11.845Z,98035.16
2022-08-07T09:28:00.374Z,98044.06
2022-08-07T09:30:37.235Z,98046.41
2022-08-07T09:33:16.639Z,98038.09
2022-08-07T09:36:05.103Z,98045.59
2022-08-07T09:38:38.366Z,98041.63
2022-08-07T09:41:14.286Z,98027.16
2022-08-07T09:44:06.223Z,98035.13
2022-08-07T09:47:50.851Z,98024.94
2022-08-07T09:50:18.606Z,98026.44
2022-08-07T09:52:48.598Z,98030.88
2022-08-07T09:55:29.725Z,98030.19
2022-08-07T09:58:32.226Z,98026.34
2022-08-07T10:01:50.551Z,98014.94
2022-08-07T10:04:28.080Z,98012.38
2022-08-07T10:07:24.547Z,98008.72
2022-08-07T10:10:20.956Z,98008.31
2022-08-07T10:13:29.577Z,98002.59
2022-08-07T10:16:09.734Z,97999.16
2022-08-07T10:18:51.522Z,97997.81
2022-08-07T10:22:14.604Z,97998.66
2022-08-07T10:24:50.471Z,98001.16
2022-08-07T10:27:46.321Z,97988.84
2022-08-07T10:30:17.747Z,97989.34
2022-08-07T10:33:00.222Z,97975.81
2022-08-07T10:35:55.636Z,97977.88
2022-08-07T10:38:49.073Z,97971.19
2022-08-07T10:41:52.119Z,97977.88
2022-08-07T10:44:33.792Z,97968.75
2022-08-07T10:47:15.897Z,97958.88
2022-08-07T10:49:50.834Z,97962.78
2022-08-07T10:52:31.756Z,97963.72
2022-08-07T10:55:26.747Z,97969.84
2022-08-07T10:58:09.410Z,97965.72
2022-08-07T11:00:50.381Z,97968.28
2022-08-07T11:03:37.893Z,97971.06
2022-08-07T11:06:21.977Z,97963.84
2022-08-07T11:08:54.590Z,97959.84
2022-08-07T11:11:27.252Z,97959.88
2022-08-07T11:14:44.756Z,97953.56
2022-08-07T11:16:54.793Z,97944.97
2022-08-07T11:19:30.816Z,97949.44
2022-08-07T11:22:11.190Z,97948.09
2022-08-07T11:25:00.367Z,97948.38
2022-08-07T11:28:02.092Z,97936.41
2022-08-07T11:30:42.378Z,97943.50
2022-08-07T11:33:16.732Z,97934.88
2022-08-07T11:35:59.164Z,97934.84
2022-08-07T11:38:33.378Z,97938.09
2022-08-07T11:41:05.805Z,97934.84
2022-08-07T11:44:11.131Z,97925.16
2022-08-07T11:46:48.673Z,97920.41
2022-08-07T11:50:11.498Z,97919.63
2022-08-07T11:52:37.699Z,97924.28
2022-08-07T11:55:18.682Z,97919.97
2022-08-07T11:58:13.270Z,97920.88
2022-08-07T12:01:02.087Z,97915.06
2022-08-07T12:04:03.138Z,97895.59
2022-08-07T12:06:55.295Z,97912.84
2022-08-07T12:09:35.099Z,97909.41
2022-08-07T12:12:10.503Z,97914.41
2022-08-07T12:14:53.769Z,97899.03
2022-08-07T12:17:33.895Z,97892.78
2022-08-07T12:20:12.912Z,97898.59
2022-08-07T12:23:16.291Z,97892.38
2022-08-07T12:26:21.497Z,97884.69
2022-08-07T12:28:45.014Z,97886.41
2022-08-07T12:31:22.192Z,97888.78
2022-08-07T12:34:00.919Z,97875.69
2022-08-07T12:36:32.918Z,97875.22
2022-08-07T12:39:02.506Z,97863.03
2022-08-07T12:41:49.112Z,97874.00
2022-08-07T12:44:21.226Z,97877.41
2022-08-07T12:47:02.916Z,97878.78
2022-08-07T12:49:48.939Z,97877.22
2022-08-07T12:52:29.167Z,97870.94
2022-08-07T12:55:09.510Z,97859.75
2022-08-07T12:58:01.291Z,97855.84
2022-08-07T13:00:35.811Z,97851.78
2022-08-07T13:03:56.336Z,97851.94
2022-08-07T13:06:27.674Z,97851.50
2022-08-07T13:10:11.019Z,97836.09
2022-08-07T13:12:02.326Z,97840.66
2022-08-07T13:14:38.044Z,97835.78
2022-08-07T13:17:40.693Z,97832.19
2022-08-07T13:20:21.777Z,97836.25
2022-08-07T13:23:03.872Z,97826.88
2022-08-07T13:25:54.093Z,97830.16
2022-08-07T13:28:33.863Z,97828.63
2022-08-07T13:31:13.473Z,97826.00
2022-08-07T13:34:30.946Z,97827.59
2022-08-07T13:36:41.123Z,97808.16
2022-08-07T13:39:49.481Z,97800.56
2022-08-07T13:42:08.117Z,97806.13
2022-08-07T13:44:38.378Z,97801.34
2022-08-07T13:47:09.622Z,97804.19
2022-08-07T13:50:33.595Z,97806.06
2022-08-07T13:52:39.651Z,97803.66
2022-08-07T13:55:13.145Z,97792.81
2022-08-07T13:58:02.067Z,97785.25
2022-08-07T14:00:50.641Z,97788.50
2022-08-07T14:03:29.068Z,97780.41
2022-08-07T14:06:11.312Z,97781.59
2022-08-07T14:08:44.672Z,97781.22
2022-08-07T14:11:17.674Z,97780.84
2022-08-07T14:13:51.445Z,97777.63
2022-08-07T14:16:31.136Z,97774.38
2022-08-07T14:19:01.446Z,97780.03
2022-08-07T14:22:01.021Z,97771.94
2022-08-07T14:24:26.185Z,97778.03
2022-08-07T14:26:57.949Z,97774.75
2022-08-07T14:30:07.714Z,97766.66
2022-08-07T14:32:19.713Z,97765.03
2022-08-07T14:34:48.022Z,97763.41
2022-08-07T14:37:17.997Z,97755.22
2022-08-07T14:40:17.437Z,97769.47
2022-08-07T14:43:01.190Z,97765.78
2022-08-07T14:45:46.748Z,97761.75
2022-08-07T14:48:19.612Z,97752.50
2022-08-07T14:50:48.858Z,97753.72
2022-08-07T14:54:03.712Z,97758.97
2022-08-07T14:56:08.760Z,97754.09
2022-08-07T14:58:42.881Z,97753.31
2022-08-07T15:04:05.731Z,97752.47
2022-08-07T15:06:33.670Z,97760.56
2022-08-07T15:09:59.119Z,97747.59
2022-08-07T15:14:57.662Z,97737.06
2022-08-07T15:17:28.719Z,97741.53
2022-08-07T15:20:33.627Z,97748.47
2022-08-07T15:22:53.711Z,97750.06
2022-08-07T15:25:24.600Z,97741.56
2022-08-07T15:28:34.764Z,97744.38
2022-08-07T15:33:45.954Z,97737.91
2022-08-07T15:37:02.676Z,97739.91
2022-08-07T15:39:05.517Z,97744.34
2022-08-07T15:44:30.035Z,97738.72
2022-08-07T15:50:04.006Z,97735.47
2022-08-07T15:52:39.881Z,97736.72
2022-08-07T15:55:12.190Z,97739.50
2022-08-07T15:57:48.815Z,97733.03
2022-08-07T16:00:31.579Z,97730.22
2022-08-07T16:03:03.131Z,97727.78
2022-08-07T16:05:32.312Z,97726.56
2022-08-07T16:08:31.591Z,97724.94
2022-08-07T16:10:56.552Z,97728.56
2022-08-07T16:13:59.738Z,97723.69
2022-08-07T16:16:56.756Z,97719.59
2022-08-07T16:19:59.461Z,97704.63
2022-08-07T16:23:12.048Z,97719.22
2022-08-07T16:25:55.249Z,97713.47
2022-08-07T16:29:18.401Z,97720.75
2022-08-07T16:31:51.922Z,97717.91
2022-08-07T16:34:31.501Z,97715.94
2022-08-07T16:38:03.011Z,97716.72
2022-08-07T16:40:57.054Z,97722.31
2022-08-07T16:44:03.761Z,97715.03
2022-08-07T16:47:28.823Z,97715.00
2022-08-07T16:50:35.846Z,97713.75
2022-08-07T16:54:01.603Z,97719.84
2022-08-07T16:56:32.350Z,97720.28
2022-08-07T16:59:14.881Z,97721.50
2022-08-07T17:01:56.664Z,97726.38
2022-08-07T17:04:36.813Z,97729.13
2022-08-07T17:07:28.190Z,97727.94
2022-08-07T17:10:32.303Z,97726.25
2022-08-07T17:13:16.687Z,97731.00
2022-08-07T17:15:52.685Z,97726.13
2022-08-07T17:18:28.092Z,97721.91
2022-08-07T17:20:55.782Z,97731.28
2022-08-07T17:23:36.816Z,97728.84
2022-08-07T17:26:23.363Z,97736.09
2022-08-07T17:29:05.966Z,97732.75
2022-08-07T17:32:02.811Z,97736.31
2022-08-07T17:34:38.867Z,97746.91
2022-08-07T17:38:06.686Z,97745.84
2022-08-07T17:40:18.941Z,97752.66
2022-08-07T17:43:03.925Z,97761.38
2022-08-07T17:45:54.215Z,97758.69
2022-08-07T17:48:30.634Z,97761.38
2022-08-07T17:51:04.709Z,97761.50
2022-08-07T17:54:02.463Z,97765.59
2022-08-07T17:56:31.438Z,97770.03
2022-08-07T17:59:08.924Z,97767.84
2022-08-07T18:01:44.289Z,97771.03
2022-08-07T18:04:24.635Z,97771.56
2022-08-07T18:07:22.655Z,97775.59
2022-08-07T18:10:05.896Z,97778.63
2022-08-07T18:13:02.478Z,97779.78
2022-08-07T18:15:40.376Z,97782.09
2022-08-07T18:18:47.400Z,97775.59
2022-08-07T18:21:42.091Z,97778.44
2022-08-07T18:24:06.978Z,97783.38
2022-08-07T18:26:56.431Z,97782.56
2022-08-07T18:30:05.802Z,97788.63
2022-08-07T18:32:36.381Z,97791.47
2022-08-07T18:35:15.747Z,97787.88
2022-08-07T18:38:58.087Z,97798.22
2022-08-07T18:41:08.049Z,97800.16
2022-08-07T18:43:49.419Z,97796.22
2022-08-07T18:46:25.392Z,97804.06
2022-08-07T18:50:19.460Z,97807.56
2022-08-07T18:52:37.484Z,97812.16
2022-08-07T18:55:00.601Z,97817.50
2022-08-07T18:57:59.832Z,97818.88
2022-08-07T19:00:41.365Z,97826.19
2022-08-07T19:03:17.988Z,97825.59
2022-08-07T19:06:02.167Z,97830.78
2022-08-07T19:08:37.607Z,97829.91
2022-08-07T19:11:35.632Z,97841.34
2022-08-07T19:14:17.101Z,97834.56
2022-08-07T19:17:05.021Z,97848.44
2022-08-07T19:19:46.061Z,97859.56
2022-08-07T19:22:30.255Z,97864.63
2022-08-07T19:25:06.538Z,97869.06
2022-08-07T19:28:57.032Z,97869.59
2022-08-07T19:30:58.578Z,97871.66
2022-08-07T19:33:34.984Z,97871.91
2022-08-07T19:36:04.026Z,97880.06
2022-08-07T19:42:08.356Z,97891.22
2022-08-07T19:44:49.189Z,97883.16
2022-08-07T19:47:27.422Z,97882.13
2022-08-07T19:49:57.824Z,97881.59
2022-08-07T19:52:28.018Z,97893.41
2022-08-07T19:54:56.479Z,97883.16
2022-08-07T19:58:03.414Z,97887.56
2022-08-07T20:00:21.796Z,97889.00
2022-08-07T20:03:00.028Z,97887.13
2022-08-07T20:05:31.026Z,97883.63
2022-08-07T20:08:23.517Z,97877.56
2022-08-07T20:10:55.826Z,97885.25
2022-08-07T20:13:32.161Z,97881.88
2022-08-07T20:16:01.993Z,97894.44
2022-08-07T20:18:33.522Z,97888.56
2022-08-07T20:21:03.287Z,97889.97
2022-08-07T20:23:51.902Z,97884.56
2022-08-07T20:26:32.296Z,97892.34
2022-08-07T20:29:01.227Z,97888.84
2022-08-07T20:31:42.629Z,97889.22
2022-08-07T20:34:11.049Z,97879.53
2022-08-07T20:36:40.799Z,97885.13
2022-08-07T20:40:01.447Z,97894.28
2022-08-07T20:41:58.800Z,97895.31
2022-08-07T20:44:28.775Z,97896.22
2022-08-07T20:47:05.825Z,97896.53
2022-08-07T20:49:57.887Z,97894.91
2022-08-07T20:52:50.672Z,97894.91
2022-08-07T20:55:14.873Z,97894.44
2022-08-07T20:57:47.672Z,97887.09
2022-08-07T21:00:38.059Z,97897.44
2022-08-07T21:03:13.976Z,97888.72
2022-08-07T21:05:54.350Z,97886.13
2022-08-07T21:08:36.769Z,97883.53
2022-08-07T21:11:12.078Z,97893.13
2022-08-07T21:14:16.448Z,97890.66
2022-08-07T21:16:55.865Z,97889.72
2022-08-07T21:19:32.166Z,97890.41
2022-08-07T21:22:15.372Z,97890.59
2022-08-07T21:25:04.558Z,97879.25
2022-08-07T21:27:53.472Z,97873.53
2022-08-07T21:30:30.131Z,97865.31
2022-08-07T21:33:10.973Z,97861.88
2022-08-07T21:36:05.022Z,97868.44
2022-08-07T21:38:36.748Z,97866.44
2022-08-07T21:41:10.165Z,97874.97
2022-08-07T21:43:55.409Z,97879.88
2022-08-07T21:46:32.096Z,97873.16
2022-08-07T21:49:15.005Z,97875.81
2022-08-07T21:51:54.883Z,97876.13
2022-08-07T21:54:34.794Z,97875.44
2022-08-07T21:57:16.121Z,97878.25
2022-08-07T22:00:03.520Z,97876.94
2022-08-07T22:02:41.167Z,97884.50
2022-08-07T22:05:12.340Z,97881.72
2022-08-07T22:07:59.351Z,97881.91
2022-08-07T22:10:33.878Z,97871.56
2022-08-07T22:13:05.876Z,97877.81
2022-08-07T22:16:39.548Z,97874.56
2022-08-07T22:18:35.318Z,97870.53
2022-08-07T22:21:12.347Z,97877.41
2022-08-07T22:23:47.121Z,97874.00
2022-08-07T22:26:20.385Z,97881.13
2022-08-07T22:28:55.003Z,97893.31
2022-08-07T22:31:45.514Z,97894.78
2022-08-07T22:34:29.194Z,97906.47
2022-08-07T22:37:09.228Z,97901.72
2022-08-07T22:39:53.519Z,97905.00
2022-08-07T22:42:25.623Z,97900.56
2022-08-07T22:44:58.656Z,97900.22
2022-08-07T22:47:45.303Z,97915.31
2022-08-07T22:50:33.354Z,97905.81
2022-08-07T22:53:18.636Z,97907.09
2022-08-07T22:56:08.629Z,97907.97
2022-08-07T22:59:02.281Z,97903.88
2022-08-07T23:01:51.644Z,97907.00
2022-08-07T23:04:35.756Z,97901.94
2022-08-07T23:07:41.461Z,97913.75
2022-08-07T23:10:38.165Z,97909.97
2022-08-07T23:13:48.833Z,97908.47
2022-08-07T23:16:55.003Z,97917.00
2022-08-07T23:19:51.438Z,97914.72
2022-08-07T23:22:34.078Z,97915.03
2022-08-07T23:25:13.709Z,97919.31
2022-08-07T23:28:22.529Z,97917.19
2022-08-07T23:31:11.640Z,97910.28
2022-08-07T23:34:38.311Z,97917.19
2022-08-07T23:37:32.873Z,97922.09
2022-08-07T23:40:11.489Z,97913.41
2022-08-07T23:42:53.997Z,97913.72
2022-08-07T23:45:43.508Z,97918.97
2022-08-07T23:48:39.867Z,97911.44
2022-08-07T23:52:58.815Z,97917.16
2022-08-07T23:54:04.032Z,97910.09
2022-08-07T23:56:38.004Z,97923.22
2022-08-07T23:59:25.612Z,97918.97
